Guthrie Center, Iowa
Current Conditions -  °F | °C
As of 4:35 AM on Saturday 22 Nov 2014 (Local Time) from KPRO Reporting Station
Haze Haze  
Wind Chill: 32°   Ceiling: 400
Heat Index: 37°   Visibility: 1.2mi
Dew Point: 37°   Wind: 6mph
Humidity: 100%   Direction: 170°S
Pressure: 29.91"   Gusts: NA
Location:  41.68°N, 94.5°W
Report Text: KPRO 221035Z AUTO 17005KT 1 1/4SM BR OVC004 03/03 A2991 RMK AO2 T00270027
Loading
Personal Weather Stations






























Interactive Weather Map New forecast layout! Learn more

10-Day Weather Forecast

Advertisements
Track Severe Weather on mobile